WUK7YB LRCK-EGGW
Flight info
| Callsign | WUK7YB |
|---|---|
| Flight time | N/A |
| Altitude | 36000 |
| Route | DIRAL DCT IDARU DCT PELUR DCT SIB DCT BUXLE DCT BUDOP DCT MAREG DCT DITIS DCT OKG DCT VELIS DCT SWALM DCT TIVUN DCT DIBIR DCT BREDA DCT NOGRO M40 RINIS |
| Aircraft | A21N/M-SDE3FGHIRWY/LB1 |
Departure
| Time | N/A |
|---|---|
| Airport | Mihail Kogălniceanu International Airport (LRCK) |
Arrival
| Time | 2026-05-06 15:14 |
|---|---|
| Airport | London Luton Airport (EGGW) |
| Time | Latitude | Longitude | Altitude | Speed | Heading |
|---|---|---|---|---|---|
| 2026-05-06 14:21 | 51.27611 | 6.12892 | 35898 ft | 414 kts | 287° |
| 2026-05-06 14:21 | 51.28348 | 6.09557 | 35889 ft | 420 kts | 288° |
| 2026-05-06 14:21 | 51.30305 | 6.01050 | 35886 ft | 432 kts | 288° |
| 2026-05-06 14:22 | 51.32393 | 5.91932 | 35869 ft | 441 kts | 288° |
| 2026-05-06 14:22 | 51.34462 | 5.82817 | 35870 ft | 443 kts | 288° |
| 2026-05-06 14:23 | 51.36546 | 5.73592 | 35866 ft | 442 kts | 288° |
| 2026-05-06 14:23 | 51.38616 | 5.64386 | 35873 ft | 442 kts | 288° |
| 2026-05-06 14:24 | 51.40689 | 5.55125 | 35870 ft | 442 kts | 288° |
| 2026-05-06 14:24 | 51.42735 | 5.45951 | 35874 ft | 442 kts | 289° |
| 2026-05-06 14:25 | 51.44780 | 5.36746 | 35877 ft | 442 kts | 289° |
| 2026-05-06 14:25 | 51.46801 | 5.27606 | 35884 ft | 441 kts | 288° |
| 2026-05-06 14:26 | 51.48824 | 5.18414 | 35876 ft | 441 kts | 288° |
| 2026-05-06 14:26 | 51.50856 | 5.09139 | 35886 ft | 441 kts | 288° |
| 2026-05-06 14:27 | 51.52862 | 4.99939 | 35889 ft | 441 kts | 288° |
| 2026-05-06 14:27 | 51.54866 | 4.90710 | 35882 ft | 440 kts | 288° |
| 2026-05-06 14:28 | 51.56961 | 4.81571 | 35880 ft | 440 kts | 290° |
| 2026-05-06 14:28 | 51.59235 | 4.72462 | 35888 ft | 440 kts | 291° |
| 2026-05-06 14:29 | 51.61501 | 4.63368 | 35880 ft | 441 kts | 291° |
| 2026-05-06 14:29 | 51.63756 | 4.54265 | 35876 ft | 441 kts | 291° |
| 2026-05-06 14:30 | 51.66020 | 4.45081 | 35866 ft | 441 kts | 291° |
| 2026-05-06 14:30 | 51.68259 | 4.35958 | 35871 ft | 440 kts | 291° |
| 2026-05-06 14:31 | 51.70456 | 4.26965 | 35878 ft | 440 kts | 290° |
| 2026-05-06 14:31 | 51.72683 | 4.17814 | 35885 ft | 439 kts | 290° |
| 2026-05-06 14:32 | 51.74908 | 4.08631 | 35882 ft | 439 kts | 290° |
| 2026-05-06 14:32 | 51.77108 | 3.99517 | 35880 ft | 439 kts | 290° |
| 2026-05-06 14:33 | 51.79309 | 3.90358 | 35882 ft | 439 kts | 290° |
| 2026-05-06 14:33 | 51.81493 | 3.81233 | 35885 ft | 440 kts | 290° |
| 2026-05-06 14:34 | 51.83682 | 3.72040 | 35888 ft | 439 kts | 290° |
| 2026-05-06 14:34 | 51.85867 | 3.62831 | 35894 ft | 439 kts | 290° |
| 2026-05-06 14:35 | 51.87951 | 3.54013 | 35812 ft | 439 kts | 290° |
| 2026-05-06 14:35 | 51.88995 | 3.49575 | 35626 ft | 438 kts | 290° |
| 2026-05-06 14:35 | 51.89975 | 3.45407 | 35447 ft | 436 kts | 290° |
| 2026-05-06 14:36 | 51.91022 | 3.40941 | 35155 ft | 434 kts | 290° |
| 2026-05-06 14:36 | 51.92097 | 3.36348 | 34660 ft | 433 kts | 290° |
| 2026-05-06 14:36 | 51.93153 | 3.31828 | 34017 ft | 435 kts | 289° |
| 2026-05-06 14:36 | 51.94138 | 3.27191 | 33303 ft | 435 kts | 285° |
| 2026-05-06 14:37 | 51.94897 | 3.22468 | 32595 ft | 436 kts | 281° |
| 2026-05-06 14:37 | 51.95428 | 3.17660 | 31873 ft | 437 kts | 277° |
| 2026-05-06 14:37 | 51.95729 | 3.12762 | 31150 ft | 437 kts | 272° |
| 2026-05-06 14:37 | 51.95793 | 3.07906 | 30391 ft | 437 kts | 268° |
| 2026-05-06 14:38 | 51.95622 | 3.02974 | 29607 ft | 437 kts | 264° |
| 2026-05-06 14:38 | 51.95316 | 2.98104 | 28939 ft | 434 kts | 263° |
| 2026-05-06 14:38 | 51.94995 | 2.93291 | 28460 ft | 427 kts | 263° |
| 2026-05-06 14:38 | 51.94677 | 2.88549 | 27967 ft | 421 kts | 263° |
| 2026-05-06 14:39 | 51.94364 | 2.83872 | 27477 ft | 416 kts | 263° |
| 2026-05-06 14:39 | 51.94056 | 2.79235 | 26984 ft | 411 kts | 263° |
| 2026-05-06 14:39 | 51.93763 | 2.74847 | 26511 ft | 407 kts | 263° |
| 2026-05-06 14:39 | 51.93493 | 2.70815 | 26076 ft | 403 kts | 263° |
| 2026-05-06 14:40 | 51.93214 | 2.66663 | 25629 ft | 400 kts | 263° |
| 2026-05-06 14:40 | 51.92957 | 2.62874 | 25221 ft | 396 kts | 263° |
| 2026-05-06 14:40 | 51.92672 | 2.58713 | 24770 ft | 393 kts | 263° |
| 2026-05-06 14:40 | 51.92367 | 2.54301 | 24288 ft | 390 kts | 263° |
| 2026-05-06 14:41 | 51.92068 | 2.49997 | 23819 ft | 387 kts | 263° |
| 2026-05-06 14:41 | 51.91769 | 2.45708 | 23354 ft | 384 kts | 263° |
| 2026-05-06 14:41 | 51.91469 | 2.41450 | 22886 ft | 381 kts | 263° |
| 2026-05-06 14:41 | 51.91167 | 2.37183 | 22410 ft | 378 kts | 263° |
| 2026-05-06 14:42 | 51.90891 | 2.33007 | 21940 ft | 376 kts | 264° |
| 2026-05-06 14:42 | 51.90739 | 2.28826 | 21679 ft | 378 kts | 267° |
| 2026-05-06 14:42 | 51.90639 | 2.24547 | 21689 ft | 382 kts | 267° |
| 2026-05-06 14:42 | 51.90541 | 2.20217 | 21522 ft | 383 kts | 268° |
| 2026-05-06 14:43 | 51.90442 | 2.15942 | 21027 ft | 381 kts | 268° |
| 2026-05-06 14:43 | 51.90343 | 2.11708 | 20544 ft | 378 kts | 268° |
| 2026-05-06 14:43 | 51.90242 | 2.07467 | 20057 ft | 375 kts | 268° |
| 2026-05-06 14:43 | 51.90139 | 2.03273 | 19576 ft | 372 kts | 268° |
| 2026-05-06 14:44 | 51.90034 | 1.99104 | 19092 ft | 369 kts | 268° |
| 2026-05-06 14:44 | 51.89930 | 1.94979 | 18614 ft | 366 kts | 268° |
| 2026-05-06 14:44 | 51.90014 | 1.90918 | 18114 ft | 364 kts | 280° |
| 2026-05-06 14:45 | 51.92192 | 1.83747 | 17726 ft | 363 kts | 308° |
| 2026-05-06 14:45 | 51.93831 | 1.80575 | 17748 ft | 364 kts | 309° |
| 2026-05-06 14:45 | 51.95455 | 1.77489 | 17776 ft | 364 kts | 309° |
| 2026-05-06 14:45 | 51.97095 | 1.74361 | 17803 ft | 364 kts | 309° |
| 2026-05-06 14:46 | 51.98685 | 1.71309 | 17827 ft | 365 kts | 309° |
| 2026-05-06 14:46 | 52.00279 | 1.68233 | 17849 ft | 364 kts | 309° |
| 2026-05-06 14:46 | 52.01872 | 1.65145 | 17871 ft | 364 kts | 309° |
| 2026-05-06 14:46 | 52.03482 | 1.62021 | 17906 ft | 363 kts | 309° |
| 2026-05-06 14:47 | 52.05064 | 1.58940 | 17926 ft | 363 kts | 309° |
| 2026-05-06 14:47 | 52.06662 | 1.55825 | 17940 ft | 363 kts | 309° |
| 2026-05-06 14:47 | 52.08252 | 1.52722 | 17945 ft | 363 kts | 309° |
| 2026-05-06 14:47 | 52.09842 | 1.49613 | 17946 ft | 363 kts | 309° |
| 2026-05-06 14:48 | 52.11431 | 1.46501 | 17944 ft | 364 kts | 309° |
| 2026-05-06 14:48 | 52.13023 | 1.43382 | 17949 ft | 364 kts | 309° |
| 2026-05-06 14:48 | 52.14609 | 1.40210 | 17943 ft | 364 kts | 306° |
| 2026-05-06 14:48 | 52.15830 | 1.36752 | 17939 ft | 363 kts | 294° |
| 2026-05-06 14:49 | 52.16568 | 1.32999 | 17947 ft | 363 kts | 281° |
| 2026-05-06 14:49 | 52.16938 | 1.29072 | 17948 ft | 363 kts | 277° |
| 2026-05-06 14:49 | 52.17235 | 1.25021 | 17948 ft | 363 kts | 276° |
| 2026-05-06 14:49 | 52.17530 | 1.20970 | 17948 ft | 363 kts | 277° |
| 2026-05-06 14:50 | 52.17829 | 1.17010 | 17955 ft | 363 kts | 277° |
| 2026-05-06 14:50 | 52.18142 | 1.12966 | 17941 ft | 362 kts | 277° |
| 2026-05-06 14:50 | 52.18452 | 1.08965 | 17927 ft | 362 kts | 277° |
| 2026-05-06 14:50 | 52.18764 | 1.04926 | 17496 ft | 364 kts | 277° |
| 2026-05-06 14:51 | 52.19070 | 1.00949 | 16952 ft | 363 kts | 277° |
| 2026-05-06 14:51 | 52.19373 | 0.97002 | 16475 ft | 360 kts | 277° |
| 2026-05-06 14:51 | 52.19680 | 0.92981 | 15995 ft | 357 kts | 277° |
| 2026-05-06 14:51 | 52.19979 | 0.89050 | 15530 ft | 355 kts | 278° |
| 2026-05-06 14:52 | 52.20270 | 0.85214 | 15061 ft | 352 kts | 278° |
| 2026-05-06 14:52 | 52.20566 | 0.81307 | 14612 ft | 349 kts | 278° |
| 2026-05-06 14:52 | 52.20851 | 0.77514 | 14364 ft | 338 kts | 278° |
| 2026-05-06 14:52 | 52.21128 | 0.73799 | 14242 ft | 325 kts | 278° |
| 2026-05-06 14:53 | 52.21385 | 0.70349 | 14108 ft | 312 kts | 278° |
| 2026-05-06 14:53 | 52.21562 | 0.66971 | 13970 ft | 301 kts | 271° |
| 2026-05-06 14:53 | 52.21420 | 0.63686 | 13912 ft | 294 kts | 263° |
| 2026-05-06 14:53 | 52.21036 | 0.60492 | 13933 ft | 297 kts | 259° |
| 2026-05-06 14:54 | 52.20601 | 0.57319 | 13940 ft | 298 kts | 259° |
| 2026-05-06 14:54 | 52.20149 | 0.54086 | 13938 ft | 297 kts | 259° |
| 2026-05-06 14:54 | 52.19695 | 0.50827 | 13855 ft | 298 kts | 259° |
| 2026-05-06 14:54 | 52.19254 | 0.47640 | 13427 ft | 299 kts | 259° |
| 2026-05-06 14:55 | 52.18812 | 0.44433 | 13034 ft | 297 kts | 259° |
| 2026-05-06 14:55 | 52.18376 | 0.41268 | 12661 ft | 294 kts | 259° |
| 2026-05-06 14:55 | 52.17937 | 0.38080 | 12304 ft | 292 kts | 259° |
| 2026-05-06 14:55 | 52.17506 | 0.34955 | 11942 ft | 291 kts | 259° |
| 2026-05-06 14:56 | 52.17084 | 0.31899 | 11567 ft | 289 kts | 259° |
| 2026-05-06 14:56 | 52.16663 | 0.28853 | 11227 ft | 286 kts | 259° |
| 2026-05-06 14:56 | 52.16231 | 0.25742 | 10871 ft | 284 kts | 259° |
| 2026-05-06 14:56 | 52.15811 | 0.22714 | 10526 ft | 283 kts | 259° |
| 2026-05-06 14:57 | 52.15388 | 0.19665 | 10179 ft | 281 kts | 259° |
| 2026-05-06 14:57 | 52.14982 | 0.16756 | 9842 ft | 279 kts | 259° |
| 2026-05-06 14:57 | 52.14560 | 0.13729 | 9496 ft | 277 kts | 259° |
| 2026-05-06 14:57 | 52.14145 | 0.10758 | 9155 ft | 276 kts | 258° |
| 2026-05-06 14:58 | 52.13727 | 0.07775 | 8822 ft | 273 kts | 258° |
| 2026-05-06 14:58 | 52.13325 | 0.04914 | 8483 ft | 272 kts | 258° |
| 2026-05-06 14:58 | 52.12914 | 0.01989 | 8142 ft | 270 kts | 258° |
| 2026-05-06 14:58 | 52.12506 | -0.00900 | 7809 ft | 268 kts | 258° |
| 2026-05-06 14:59 | 52.12108 | -0.03715 | 7482 ft | 266 kts | 258° |
| 2026-05-06 14:59 | 52.11715 | -0.06487 | 7169 ft | 264 kts | 258° |
| 2026-05-06 14:59 | 52.11322 | -0.09266 | 6848 ft | 262 kts | 258° |
| 2026-05-06 14:59 | 52.10922 | -0.12077 | 6516 ft | 260 kts | 258° |
| 2026-05-06 15:00 | 52.10529 | -0.14818 | 6216 ft | 257 kts | 256° |
| 2026-05-06 15:00 | 52.09904 | -0.17403 | 5902 ft | 256 kts | 241° |
| 2026-05-06 15:00 | 52.08921 | -0.19588 | 5861 ft | 243 kts | 230° |
| 2026-05-06 15:00 | 52.07812 | -0.21600 | 5870 ft | 243 kts | 228° |
| 2026-05-06 15:01 | 52.06697 | -0.23571 | 5662 ft | 244 kts | 228° |
| 2026-05-06 15:01 | 52.05600 | -0.25521 | 5372 ft | 242 kts | 229° |
| 2026-05-06 15:01 | 52.04528 | -0.27449 | 5095 ft | 241 kts | 229° |
| 2026-05-06 15:01 | 52.03426 | -0.29444 | 4971 ft | 240 kts | 230° |
| 2026-05-06 15:02 | 52.02338 | -0.31420 | 4968 ft | 242 kts | 230° |
| 2026-05-06 15:02 | 52.01274 | -0.33354 | 4974 ft | 243 kts | 230° |
| 2026-05-06 15:02 | 52.00206 | -0.35413 | 4973 ft | 242 kts | 237° |
| 2026-05-06 15:02 | 51.99431 | -0.37682 | 4977 ft | 240 kts | 250° |
| 2026-05-06 15:03 | 51.98908 | -0.40190 | 4983 ft | 239 kts | 256° |
| 2026-05-06 15:03 | 51.98473 | -0.42638 | 4988 ft | 238 kts | 255° |
| 2026-05-06 15:03 | 51.97869 | -0.45068 | 4986 ft | 239 kts | 244° |
| 2026-05-06 15:03 | 51.96985 | -0.47297 | 4988 ft | 240 kts | 235° |
| 2026-05-06 15:04 | 51.95986 | -0.49388 | 4990 ft | 240 kts | 233° |
| 2026-05-06 15:04 | 51.94954 | -0.51475 | 4986 ft | 241 kts | 233° |
| 2026-05-06 15:04 | 51.93925 | -0.53557 | 4986 ft | 240 kts | 233° |
| 2026-05-06 15:04 | 51.92890 | -0.55666 | 4986 ft | 240 kts | 233° |
| 2026-05-06 15:05 | 51.91869 | -0.57756 | 4988 ft | 240 kts | 233° |
| 2026-05-06 15:05 | 51.90850 | -0.59870 | 4987 ft | 240 kts | 237° |
| 2026-05-06 15:05 | 51.90045 | -0.62096 | 4984 ft | 238 kts | 248° |
| 2026-05-06 15:05 | 51.89496 | -0.64556 | 4987 ft | 237 kts | 256° |
| 2026-05-06 15:06 | 51.89074 | -0.66985 | 4985 ft | 237 kts | 257° |
| 2026-05-06 15:06 | 51.88651 | -0.69513 | 4991 ft | 234 kts | 257° |
| 2026-05-06 15:06 | 51.88248 | -0.71883 | 4973 ft | 221 kts | 256° |
| 2026-05-06 15:06 | 51.87674 | -0.74034 | 5026 ft | 206 kts | 233° |
| 2026-05-06 15:07 | 51.86609 | -0.75253 | 4976 ft | 192 kts | 199° |
| 2026-05-06 15:07 | 51.85382 | -0.75445 | 4777 ft | 185 kts | 170° |
| 2026-05-06 15:07 | 51.84278 | -0.74983 | 4549 ft | 178 kts | 161° |
| 2026-05-06 15:07 | 51.83141 | -0.74374 | 4317 ft | 171 kts | 156° |
| 2026-05-06 15:08 | 51.82230 | -0.73404 | 4080 ft | 162 kts | 128° |
| 2026-05-06 15:08 | 51.81789 | -0.71882 | 3898 ft | 155 kts | 93° |
| 2026-05-06 15:08 | 51.81786 | -0.70263 | 3776 ft | 152 kts | 79° |
| 2026-05-06 15:08 | 51.81968 | -0.68633 | 3745 ft | 151 kts | 71° |
| 2026-05-06 15:09 | 51.82238 | -0.67092 | 3719 ft | 150 kts | 69° |
| 2026-05-06 15:09 | 51.82522 | -0.65571 | 3682 ft | 149 kts | 69° |
| 2026-05-06 15:09 | 51.82809 | -0.63996 | 3623 ft | 149 kts | 69° |
| 2026-05-06 15:09 | 51.83087 | -0.62421 | 3525 ft | 150 kts | 69° |
| 2026-05-06 15:10 | 51.83362 | -0.60818 | 3324 ft | 149 kts | 69° |
| 2026-05-06 15:10 | 51.83627 | -0.59256 | 3128 ft | 148 kts | 69° |
| 2026-05-06 15:10 | 51.83898 | -0.57648 | 2926 ft | 148 kts | 69° |
| 2026-05-06 15:10 | 51.84163 | -0.56084 | 2759 ft | 147 kts | 70° |
| 2026-05-06 15:11 | 51.84424 | -0.54536 | 2575 ft | 142 kts | 70° |
| 2026-05-06 15:11 | 51.84679 | -0.53036 | 2372 ft | 140 kts | 70° |
| 2026-05-06 15:11 | 51.84929 | -0.51569 | 2187 ft | 140 kts | 70° |
| 2026-05-06 15:11 | 51.85181 | -0.50098 | 2004 ft | 139 kts | 70° |
| 2026-05-06 15:12 | 51.85433 | -0.48624 | 1826 ft | 139 kts | 71° |
| 2026-05-06 15:12 | 51.85683 | -0.47158 | 1641 ft | 139 kts | 70° |
| 2026-05-06 15:12 | 51.85931 | -0.45712 | 1456 ft | 139 kts | 69° |
| 2026-05-06 15:12 | 51.86175 | -0.44293 | 1293 ft | 138 kts | 69° |
| 2026-05-06 15:13 | 51.86419 | -0.42875 | 1118 ft | 138 kts | 69° |
| 2026-05-06 15:13 | 51.86669 | -0.41428 | 934 ft | 138 kts | 70° |
| 2026-05-06 15:13 | 51.86920 | -0.39975 | 765 ft | 137 kts | 72° |
| 2026-05-06 15:13 | 51.87164 | -0.38550 | 578 ft | 136 kts | 70° |
| 2026-05-06 15:14 | 51.87406 | -0.37183 | 534 ft | 110 kts | 73° |
| 2026-05-06 15:14 | 51.87562 | -0.36319 | 523 ft | 57 kts | 73° |
| 2026-05-06 15:14 | 51.87638 | -0.35837 | 510 ft | 28 kts | 75° |
| 2026-05-06 15:14 | 51.87672 | -0.35659 | 505 ft | 10 kts | 60° |
| 2026-05-06 15:15 | 51.87725 | -0.35633 | 504 ft | 8 kts | 318° |
| 2026-05-06 15:15 | 51.87753 | -0.35701 | 504 ft | 7 kts | 299° |
| 2026-05-06 15:15 | 51.87782 | -0.35780 | 503 ft | 10 kts | 300° |
| 2026-05-06 15:15 | 51.87813 | -0.35889 | 504 ft | 11 kts | 270° |
| 2026-05-06 15:16 | 51.87796 | -0.36011 | 508 ft | 10 kts | 253° |
| 2026-05-06 15:16 | 51.87778 | -0.36118 | 511 ft | 10 kts | 254° |
| 2026-05-06 15:16 | 51.87757 | -0.36240 | 512 ft | 12 kts | 254° |
| 2026-05-06 15:16 | 51.87735 | -0.36365 | 515 ft | 11 kts | 252° |
| 2026-05-06 15:17 | 51.87715 | -0.36479 | 519 ft | 10 kts | 253° |
| 2026-05-06 15:17 | 51.87695 | -0.36595 | 521 ft | 11 kts | 254° |
| 2026-05-06 15:17 | 51.87673 | -0.36727 | 523 ft | 12 kts | 254° |
| 2026-05-06 15:17 | 51.87652 | -0.36852 | 526 ft | 11 kts | 255° |
| 2026-05-06 15:18 | 51.87678 | -0.36947 | 527 ft | 10 kts | 334° |
| 2026-05-06 15:18 | 51.87758 | -0.36990 | 525 ft | 13 kts | 342° |
| 2026-05-06 15:18 | 51.87855 | -0.37040 | 521 ft | 16 kts | 342° |
| 2026-05-06 15:18 | 51.87962 | -0.37097 | 519 ft | 17 kts | 342° |
| 2026-05-06 15:19 | 51.88076 | -0.37158 | 519 ft | 17 kts | 341° |
| 2026-05-06 15:19 | 51.88190 | -0.37215 | 518 ft | 15 kts | 341° |
| 2026-05-06 15:19 | 51.88235 | -0.37292 | 517 ft | 9 kts | 269° |
| 2026-05-06 15:19 | 51.88224 | -0.37361 | 519 ft | 1 kts | 252° |
| 2026-05-06 15:20 | 51.88222 | -0.37369 | 519 ft | 0 kts | 251° |
| 2026-05-06 15:20 | 51.88218 | -0.37381 | 519 ft | 1 kts | 230° |
| 2026-05-06 15:20 | 51.88203 | -0.37390 | 520 ft | 1 kts | 171° |
| 2026-05-06 15:20 | 51.88181 | -0.37377 | 520 ft | 0 kts | 161° |